首页
METAR-TAF:

METAR-TAF

机场 :

岡山機場

岡山, 日本

纬度: 34-45N, 经度: 133-51E, 海拔: 241米

当前天气观测

该预报发布于9小时和20分钟前的12:00 UTC
风速5节,风向
温度 23°C
湿度 83%
气压 1004 hPa
能见度10公里或以上
少量云层高于2000英尺
散云层高于10000英尺
多云

METAR: RJOB 151200Z 08005KT 9999 FEW020 SCT100 BKN/// 23/20 Q1004

时间: 06:20 (21:20 UTC)

预报

该预报发布于4小时和15分钟前的17:05 UTC
预报有效从15日的 18点(UTC)到 17日的 00点(UTC)
风速4节,风向东北
能见度10公里或以上
少量云层高于1000英尺
散云层高于2000英尺
成为
从 15日的 19点(UTC)到 15日的 21点(UTC)
风速5节,风向西转西南
成为
从 16日的 12点(UTC)到 16日的 15点(UTC)
风速5节,风向东北

TAF: RJOB 151705Z 1518/1700 04004KT 9999 FEW010 SCT020 BECMG 1519/1521 25005KT BECMG 1612/1615 04005KT

超过4000个机场的气象观测和天气预报(METAR&TAF报告)。

可查询的气象台以黄色和红色小点在地图上表示。

将鼠标移到小点上方,可查看气象台名称。

然后点击查看天气观测和预报。

如需切换地图:点击带黑十字的绿色按钮放大地图;点击带横线的绿色按钮缩小地图;或者点击绿色箭头查看邻近地区的地图。


METAR-TAF: